Decoded Metar for YBRM (BROOME in AUSTRALIA) (IATA:BME) | Meteo·Mobile Aviation Weather
aviador You're here:

YBRM Decoded Metar

BROOME in AUSTRALIA
Report Time2018-10-23 09:00:00
UTC Time2018-10-23 09:30:21
Flight Rules vfr VFR
Wind310° at 11 kt
W.Decomp.*RWY 28: 9.7 kt HW 5.2 kt RCW
W.Rank310° ranks 9
Current wind is above 310° avg. (7.8)
Visibility9999 m
Phenomena:N/A
Clouds:N/A
Expected CloudBase > 1,600 ft AGL from Temp-Dew spread
CeilingNone
Temp28°C (ISA +13)
Dew Point24°C (79% RH)
Heat Index31.9°C
QNH1007 hPa
Density Alt2,159 ft
Elevation56 ft
Report Wrong Elevation
Raw Report
YBRM 230900Z AUTO 31011KT 9999 // NCD 28/24 Q1007=

Extra information for YBRM:More info

Metar Taf Metar & Taf Last 4 Metars F.Rules Stats Wind Profile Meteogram Temp Stats Airport Information Weather charts Add Link Nearby VenuesMetar ALERT Operation Metar Decoded Social comments